ZPPP Airport Information

Runway Information
Runway 03 Length 11155 ft width 148 ft
Elevation 6204 ft Threshold 0 ft Heading 32
Runway 21 Length 11155 ft Width 148 ft
Elevation 6217 ft Threshold 0 ft Heading 212
Airport Frequencies
Type APP Name KUNMING AP Frequency 124.25 MHZ
Type ATIS Name ATIS Frequency 128.45 MHZ
Type GND Name KUNMING GN Frequency 121.85 MHZ
Type TWR Name KUNMING TW Frequency 118.1 MHZ
Airport Navaids
Type VOR-DME Name Kunming Frequency 112900 KHZ
Type NDB Name Kunming Frequency 225 KHZ
Type NDB Name Hunshuitang Frequency 443 KHZ
Airport Weather Information & NOTAM
ADDS - METARS form results

(0200 UTC 23 January 2019)
Data provider http://aviationweather.gov/metar/data/
 
Forecast for: ZPPP (KUNMING/WUJIABA , CN)
Text: TAF ZPPP 221910Z 2300/2324 22006MPS 6000 SCT020 BKN030 TX16/2308Z TN04/2323Z
Forecast period: 0000 UTC 23 January 2019 to 0000 UTC 24 January 2019
Forecast type: FROM: standard forecast or significant change
Winds: from the SW (220 degrees) at 14 MPH (12 knots; 6.2 m/s)
Visibility: 4 miles (6 km)
Ceiling: 3000 feet AGL
Clouds: scattered clouds at 2000 feet AGL
broken clouds at 3000 feet AGL
Weather: no significant weather forecast for this period